sensor_id;sensor_type;location;lat;lon;timestamp;P1;durP1;ratioP1;P2;durP2;ratioP2
39822;SDS011;25499;53.958;10.970;2022-11-13T06:46:30;105.25;;;17.25;;
39822;SDS011;25499;53.958;10.970;2022-11-13T06:48:57;56.20;;;17.40;;
39822;SDS011;25499;53.958;10.970;2022-11-13T06:51:23;40.42;;;17.85;;
39822;SDS011;25499;53.958;10.970;2022-11-13T06:53:50;44.42;;;17.60;;
39822;SDS011;25499;53.958;10.970;2022-11-13T06:56:16;50.38;;;17.20;;
39822;SDS011;25499;53.958;10.970;2022-11-13T06:58:42;115.25;;;19.92;;
39822;SDS011;25499;53.958;10.970;2022-11-13T07:01:09;37.13;;;16.85;;
39822;SDS011;25499;53.958;10.970;2022-11-13T07:03:44;55.50;;;17.98;;
39822;SDS011;25499;53.958;10.970;2022-11-13T07:06:10;47.90;;;16.45;;
39822;SDS011;25499;53.958;10.970;2022-11-13T07:08:41;62.38;;;16.80;;
39822;SDS011;25499;53.958;10.970;2022-11-13T07:11:07;51.45;;;15.70;;
39822;SDS011;25499;53.958;10.970;2022-11-13T07:13:35;72.20;;;16.77;;
39822;SDS011;25499;53.958;10.970;2022-11-13T07:16:02;31.77;;;15.55;;
39822;SDS011;25499;53.958;10.970;2022-11-13T07:18:28;54.00;;;14.75;;
39822;SDS011;25499;53.958;10.970;2022-11-13T07:20:55;53.58;;;16.27;;
39822;SDS011;25499;53.958;10.970;2022-11-13T07:23:21;41.17;;;15.77;;
39822;SDS011;25499;53.958;10.970;2022-11-13T07:25:46;29.83;;;15.82;;
39822;SDS011;25499;53.958;10.970;2022-11-13T07:28:12;47.92;;;17.17;;
39822;SDS011;25499;53.958;10.970;2022-11-13T07:30:37;26.35;;;15.63;;
39822;SDS011;25499;53.958;10.970;2022-11-13T07:33:03;37.65;;;16.60;;
39822;SDS011;25499;53.958;10.970;2022-11-13T07:35:29;30.15;;;17.55;;
39822;SDS011;25499;53.958;10.970;2022-11-13T07:37:54;35.35;;;19.20;;
39822;SDS011;25499;53.958;10.970;2022-11-13T07:40:20;23.63;;;14.65;;
39822;SDS011;25499;53.958;10.970;2022-11-13T07:42:46;31.52;;;16.90;;
39822;SDS011;25499;53.958;10.970;2022-11-13T07:45:11;37.47;;;18.98;;
39822;SDS011;25499;53.958;10.970;2022-11-13T07:47:37;39.50;;;19.27;;
39822;SDS011;25499;53.958;10.970;2022-11-13T07:50:02;23.85;;;14.65;;
39822;SDS011;25499;53.958;10.970;2022-11-13T07:52:28;36.53;;;16.48;;
39822;SDS011;25499;53.958;10.970;2022-11-13T07:54:54;31.98;;;16.50;;
39822;SDS011;25499;53.958;10.970;2022-11-13T07:57:19;41.83;;;19.48;;
39822;SDS011;25499;53.958;10.970;2022-11-13T07:59:46;36.25;;;17.60;;
39822;SDS011;25499;53.958;10.970;2022-11-13T08:02:13;33.95;;;17.52;;
39822;SDS011;25499;53.958;10.970;2022-11-13T08:04:40;47.85;;;20.73;;
39822;SDS011;25499;53.958;10.970;2022-11-13T08:07:06;32.22;;;15.90;;
39822;SDS011;25499;53.958;10.970;2022-11-13T08:09:31;40.75;;;18.60;;
39822;SDS011;25499;53.958;10.970;2022-11-13T08:11:57;42.72;;;18.67;;
39822;SDS011;25499;53.958;10.970;2022-11-13T08:14:23;40.65;;;18.08;;
39822;SDS011;25499;53.958;10.970;2022-11-13T08:16:48;43.88;;;18.83;;
39822;SDS011;25499;53.958;10.970;2022-11-13T08:19:14;36.45;;;18.02;;
39822;SDS011;25499;53.958;10.970;2022-11-13T08:21:39;35.63;;;17.38;;
39822;SDS011;25499;53.958;10.970;2022-11-13T08:24:04;41.70;;;18.60;;
39822;SDS011;25499;53.958;10.970;2022-11-13T08:26:30;39.15;;;18.48;;
39822;SDS011;25499;53.958;10.970;2022-11-13T08:28:55;34.08;;;16.17;;
39822;SDS011;25499;53.958;10.970;2022-11-13T08:31:21;35.58;;;18.02;;
39822;SDS011;25499;53.958;10.970;2022-11-13T08:33:46;39.10;;;18.80;;
39822;SDS011;25499;53.958;10.970;2022-11-13T08:36:11;34.78;;;18.83;;
39822;SDS011;25499;53.958;10.970;2022-11-13T08:38:37;47.60;;;21.25;;
39822;SDS011;25499;53.958;10.970;2022-11-13T08:41:03;38.60;;;18.40;;
39822;SDS011;25499;53.958;10.970;2022-11-13T08:43:29;36.75;;;18.90;;
39822;SDS011;25499;53.958;10.970;2022-11-13T08:45:55;30.63;;;17.15;;
39822;SDS011;25499;53.958;10.970;2022-11-13T08:48:21;34.97;;;19.20;;
39822;SDS011;25499;53.958;10.970;2022-11-13T08:50:54;36.88;;;18.67;;
39822;SDS011;25499;53.958;10.970;2022-11-13T08:53:20;34.42;;;18.55;;
39822;SDS011;25499;53.958;10.970;2022-11-13T08:55:46;34.50;;;19.10;;
39822;SDS011;25499;53.958;10.970;2022-11-13T08:58:12;35.08;;;19.85;;
39822;SDS011;25499;53.958;10.970;2022-11-13T09:00:38;35.80;;;19.77;;
39822;SDS011;25499;53.958;10.970;2022-11-13T09:03:04;36.03;;;19.85;;
39822;SDS011;25499;53.958;10.970;2022-11-13T09:05:29;38.28;;;19.45;;
39822;SDS011;25499;53.958;10.970;2022-11-13T09:07:58;36.78;;;19.77;;
39822;SDS011;25499;53.958;10.970;2022-11-13T09:10:25;35.83;;;20.73;;
39822;SDS011;25499;53.958;10.970;2022-11-13T09:12:57;37.25;;;21.50;;
39822;SDS011;25499;53.958;10.970;2022-11-13T09:15:25;41.25;;;21.95;;
39822;SDS011;25499;53.958;10.970;2022-11-13T09:17:54;56.03;;;26.88;;
39822;SDS011;25499;53.958;10.970;2022-11-13T09:20:24;38.97;;;23.10;;
39822;SDS011;25499;53.958;10.970;2022-11-13T09:22:58;41.78;;;23.02;;
39822;SDS011;25499;53.958;10.970;2022-11-13T09:25:24;41.60;;;22.83;;
39822;SDS011;25499;53.958;10.970;2022-11-13T09:27:52;46.20;;;25.13;;
39822;SDS011;25499;53.958;10.970;2022-11-13T09:30:19;43.33;;;25.10;;
39822;SDS011;25499;53.958;10.970;2022-11-13T09:32:44;41.10;;;23.35;;
39822;SDS011;25499;53.958;10.970;2022-11-13T09:35:09;36.08;;;21.73;;
39822;SDS011;25499;53.958;10.970;2022-11-13T09:37:35;31.77;;;19.80;;
39822;SDS011;25499;53.958;10.970;2022-11-13T09:40:00;40.47;;;23.77;;
39822;SDS011;25499;53.958;10.970;2022-11-13T09:42:26;41.92;;;23.60;;
39822;SDS011;25499;53.958;10.970;2022-11-13T09:44:58;35.22;;;22.80;;
39822;SDS011;25499;53.958;10.970;2022-11-13T09:47:38;38.88;;;25.15;;
39822;SDS011;25499;53.958;10.970;2022-11-13T09:50:30;41.08;;;24.98;;
39822;SDS011;25499;53.958;10.970;2022-11-13T09:52:55;38.83;;;25.13;;
39822;SDS011;25499;53.958;10.970;2022-11-13T09:55:22;42.35;;;26.65;;
39822;SDS011;25499;53.958;10.970;2022-11-13T10:08:23;41.70;;;26.00;;
39822;SDS011;25499;53.958;10.970;2022-11-13T10:13:57;37.03;;;25.25;;
39822;SDS011;25499;53.958;10.970;2022-11-13T10:57:36;29.00;;;21.83;;
39822;SDS011;25499;53.958;10.970;2022-11-13T11:00:17;27.92;;;19.65;;
39822;SDS011;25499;53.958;10.970;2022-11-13T11:02:48;24.98;;;19.20;;
39822;SDS011;25499;53.958;10.970;2022-11-13T11:05:19;23.77;;;18.40;;
39822;SDS011;25499;53.958;10.970;2022-11-13T11:07:47;26.17;;;19.92;;
39822;SDS011;25499;53.958;10.970;2022-11-13T11:12:53;24.98;;;19.25;;
39822;SDS011;25499;53.958;10.970;2022-11-13T11:15:22;28.42;;;19.25;;
39822;SDS011;25499;53.958;10.970;2022-11-13T11:18:04;23.70;;;18.23;;
39822;SDS011;25499;53.958;10.970;2022-11-13T11:20:51;24.10;;;17.70;;
39822;SDS011;25499;53.958;10.970;2022-11-13T11:26:11;22.17;;;17.80;;
39822;SDS011;25499;53.958;10.970;2022-11-13T11:31:25;22.90;;;16.33;;
39822;SDS011;25499;53.958;10.970;2022-11-13T11:47:22;20.63;;;15.55;;
39822;SDS011;25499;53.958;10.970;2022-11-13T11:49:48;20.27;;;14.35;;
39822;SDS011;25499;53.958;10.970;2022-11-13T12:00:50;15.77;;;12.48;;
39822;SDS011;25499;53.958;10.970;2022-11-13T12:19:23;17.95;;;13.35;;
39822;SDS011;25499;53.958;10.970;2022-11-13T12:45:24;17.85;;;13.88;;
39822;SDS011;25499;53.958;10.970;2022-11-13T12:51:39;19.95;;;14.32;;
39822;SDS011;25499;53.958;10.970;2022-11-13T12:54:08;18.33;;;13.85;;
39822;SDS011;25499;53.958;10.970;2022-11-13T12:56:34;19.05;;;14.85;;
39822;SDS011;25499;53.958;10.970;2022-11-13T13:01:27;20.60;;;15.85;;
39822;SDS011;25499;53.958;10.970;2022-11-13T13:06:39;21.83;;;15.77;;
39822;SDS011;25499;53.958;10.970;2022-11-13T13:09:18;21.92;;;17.05;;
39822;SDS011;25499;53.958;10.970;2022-11-13T13:17:19;21.80;;;16.65;;
39822;SDS011;25499;53.958;10.970;2022-11-13T13:19:55;23.38;;;17.15;;
39822;SDS011;25499;53.958;10.970;2022-11-13T13:22:29;25.60;;;17.48;;
39822;SDS011;25499;53.958;10.970;2022-11-13T13:24:59;23.98;;;16.27;;
39822;SDS011;25499;53.958;10.970;2022-11-13T13:27:31;21.77;;;16.63;;
39822;SDS011;25499;53.958;10.970;2022-11-13T13:30:15;25.85;;;17.13;;
39822;SDS011;25499;53.958;10.970;2022-11-13T13:32:48;25.02;;;17.08;;
39822;SDS011;25499;53.958;10.970;2022-11-13T13:35:20;22.95;;;17.10;;
39822;SDS011;25499;53.958;10.970;2022-11-13T13:46:31;25.13;;;17.55;;
39822;SDS011;25499;53.958;10.970;2022-11-13T13:49:18;22.40;;;17.40;;
39822;SDS011;25499;53.958;10.970;2022-11-13T13:52:04;23.08;;;17.60;;
39822;SDS011;25499;53.958;10.970;2022-11-13T13:54:30;24.55;;;17.23;;
39822;SDS011;25499;53.958;10.970;2022-11-13T13:56:57;24.25;;;15.80;;
39822;SDS011;25499;53.958;10.970;2022-11-13T13:59:26;21.52;;;15.10;;
39822;SDS011;25499;53.958;10.970;2022-11-13T14:01:57;21.10;;;14.93;;
39822;SDS011;25499;53.958;10.970;2022-11-13T14:04:25;21.25;;;15.30;;
39822;SDS011;25499;53.958;10.970;2022-11-13T14:06:53;19.60;;;15.00;;
39822;SDS011;25499;53.958;10.970;2022-11-13T14:09:24;20.30;;;15.52;;
39822;SDS011;25499;53.958;10.970;2022-11-13T14:12:34;22.25;;;16.23;;
39822;SDS011;25499;53.958;10.970;2022-11-13T14:14:43;22.05;;;16.40;;
39822;SDS011;25499;53.958;10.970;2022-11-13T14:17:09;19.00;;;15.20;;
39822;SDS011;25499;53.958;10.970;2022-11-13T14:19:36;20.33;;;15.15;;
39822;SDS011;25499;53.958;10.970;2022-11-13T14:22:02;22.17;;;16.20;;
39822;SDS011;25499;53.958;10.970;2022-11-13T14:27:07;24.10;;;15.82;;
39822;SDS011;25499;53.958;10.970;2022-11-13T14:29:36;21.67;;;15.48;;
39822;SDS011;25499;53.958;10.970;2022-11-13T14:32:09;22.92;;;16.50;;
39822;SDS011;25499;53.958;10.970;2022-11-13T14:34:43;19.75;;;14.15;;
39822;SDS011;25499;53.958;10.970;2022-11-13T14:37:17;20.73;;;14.68;;
39822;SDS011;25499;53.958;10.970;2022-11-13T14:39:50;19.00;;;14.02;;
39822;SDS011;25499;53.958;10.970;2022-11-13T14:42:17;19.25;;;13.48;;
39822;SDS011;25499;53.958;10.970;2022-11-13T14:44:49;19.95;;;14.30;;
39822;SDS011;25499;53.958;10.970;2022-11-13T14:47:22;20.50;;;14.05;;
39822;SDS011;25499;53.958;10.970;2022-11-13T14:49:50;19.60;;;13.73;;
39822;SDS011;25499;53.958;10.970;2022-11-13T14:52:19;20.92;;;13.50;;
39822;SDS011;25499;53.958;10.970;2022-11-13T14:54:46;17.75;;;13.27;;
39822;SDS011;25499;53.958;10.970;2022-11-13T14:57:12;18.27;;;12.35;;
39822;SDS011;25499;53.958;10.970;2022-11-13T14:59:39;18.27;;;12.15;;
39822;SDS011;25499;53.958;10.970;2022-11-13T15:02:08;17.33;;;11.60;;
39822;SDS011;25499;53.958;10.970;2022-11-13T15:04:34;16.80;;;12.02;;
39822;SDS011;25499;53.958;10.970;2022-11-13T15:07:00;17.33;;;12.05;;
39822;SDS011;25499;53.958;10.970;2022-11-13T15:09:26;18.48;;;12.48;;
39822;SDS011;25499;53.958;10.970;2022-11-13T15:11:53;17.33;;;12.20;;
39822;SDS011;25499;53.958;10.970;2022-11-13T15:14:19;16.55;;;11.48;;
39822;SDS011;25499;53.958;10.970;2022-11-13T15:16:45;16.85;;;11.82;;
39822;SDS011;25499;53.958;10.970;2022-11-13T15:19:14;16.13;;;11.85;;
39822;SDS011;25499;53.958;10.970;2022-11-13T15:21:42;15.93;;;11.97;;
39822;SDS011;25499;53.958;10.970;2022-11-13T15:24:12;17.73;;;12.43;;
39822;SDS011;25499;53.958;10.970;2022-11-13T15:26:38;15.25;;;12.20;;
39822;SDS011;25499;53.958;10.970;2022-11-13T15:29:04;18.50;;;11.73;;
39822;SDS011;25499;53.958;10.970;2022-11-13T15:33:57;19.27;;;11.68;;
39822;SDS011;25499;53.958;10.970;2022-11-13T15:36:29;17.60;;;11.73;;
39822;SDS011;25499;53.958;10.970;2022-11-13T15:38:55;18.95;;;12.18;;
39822;SDS011;25499;53.958;10.970;2022-11-13T15:41:21;19.63;;;12.18;;
39822;SDS011;25499;53.958;10.970;2022-11-13T15:43:50;19.63;;;11.93;;
39822;SDS011;25499;53.958;10.970;2022-11-13T15:46:21;21.75;;;12.35;;
39822;SDS011;25499;53.958;10.970;2022-11-13T15:48:53;19.48;;;12.35;;
39822;SDS011;25499;53.958;10.970;2022-11-13T15:53:50;20.35;;;13.20;;
39822;SDS011;25499;53.958;10.970;2022-11-13T15:56:20;18.15;;;12.93;;
39822;SDS011;25499;53.958;10.970;2022-11-13T15:58:47;20.98;;;14.30;;
39822;SDS011;25499;53.958;10.970;2022-11-13T16:01:13;19.98;;;12.93;;
39822;SDS011;25499;53.958;10.970;2022-11-13T16:03:39;21.20;;;12.80;;
39822;SDS011;25499;53.958;10.970;2022-11-13T16:06:15;20.55;;;13.88;;
39822;SDS011;25499;53.958;10.970;2022-11-13T16:08:46;20.02;;;13.07;;
39822;SDS011;25499;53.958;10.970;2022-11-13T16:11:19;20.25;;;11.95;;
39822;SDS011;25499;53.958;10.970;2022-11-13T16:13:44;19.83;;;13.20;;
39822;SDS011;25499;53.958;10.970;2022-11-13T16:16:14;18.90;;;12.02;;
39822;SDS011;25499;53.958;10.970;2022-11-13T16:18:43;18.90;;;12.82;;
39822;SDS011;25499;53.958;10.970;2022-11-13T16:21:12;19.50;;;13.00;;
39822;SDS011;25499;53.958;10.970;2022-11-13T16:23:38;17.63;;;12.32;;
39822;SDS011;25499;53.958;10.970;2022-11-13T16:26:04;17.25;;;11.90;;
39822;SDS011;25499;53.958;10.970;2022-11-13T16:28:35;16.30;;;11.02;;
39822;SDS011;25499;53.958;10.970;2022-11-13T16:31:00;18.17;;;11.85;;
39822;SDS011;25499;53.958;10.970;2022-11-13T16:33:25;16.85;;;11.00;;
39822;SDS011;25499;53.958;10.970;2022-11-13T16:35:51;16.73;;;10.98;;
39822;SDS011;25499;53.958;10.970;2022-11-13T16:38:16;14.38;;;9.98;;
39822;SDS011;25499;53.958;10.970;2022-11-13T16:40:41;13.95;;;10.05;;
39822;SDS011;25499;53.958;10.970;2022-11-13T16:43:08;14.20;;;9.55;;
39822;SDS011;25499;53.958;10.970;2022-11-13T16:45:35;16.33;;;9.63;;
39822;SDS011;25499;53.958;10.970;2022-11-13T16:48:02;14.52;;;9.48;;
39822;SDS011;25499;53.958;10.970;2022-11-13T16:50:36;13.65;;;9.40;;
39822;SDS011;25499;53.958;10.970;2022-11-13T16:53:03;15.45;;;9.88;;
39822;SDS011;25499;53.958;10.970;2022-11-13T16:55:29;14.02;;;8.75;;
39822;SDS011;25499;53.958;10.970;2022-11-13T16:57:54;15.50;;;8.98;;
39822;SDS011;25499;53.958;10.970;2022-11-13T17:00:19;11.65;;;8.00;;
39822;SDS011;25499;53.958;10.970;2022-11-13T17:02:47;11.70;;;8.73;;
39822;SDS011;25499;53.958;10.970;2022-11-13T17:05:14;14.65;;;8.30;;
39822;SDS011;25499;53.958;10.970;2022-11-13T17:07:41;10.85;;;7.93;;
39822;SDS011;25499;53.958;10.970;2022-11-13T17:10:08;10.50;;;7.50;;
39822;SDS011;25499;53.958;10.970;2022-11-13T17:12:36;9.98;;;7.43;;
39822;SDS011;25499;53.958;10.970;2022-11-13T17:15:02;10.55;;;7.25;;
39822;SDS011;25499;53.958;10.970;2022-11-13T17:17:28;9.75;;;7.82;;
39822;SDS011;25499;53.958;10.970;2022-11-13T17:19:54;11.82;;;7.70;;
39822;SDS011;25499;53.958;10.970;2022-11-13T17:22:20;13.20;;;8.50;;
39822;SDS011;25499;53.958;10.970;2022-11-13T17:24:45;11.40;;;8.25;;
39822;SDS011;25499;53.958;10.970;2022-11-13T17:27:10;11.07;;;8.00;;
39822;SDS011;25499;53.958;10.970;2022-11-13T17:29:35;9.68;;;7.10;;
39822;SDS011;25499;53.958;10.970;2022-11-13T17:32:01;9.30;;;7.07;;
39822;SDS011;25499;53.958;10.970;2022-11-13T17:34:27;9.35;;;6.97;;
39822;SDS011;25499;53.958;10.970;2022-11-13T17:36:52;9.85;;;7.15;;
39822;SDS011;25499;53.958;10.970;2022-11-13T17:39:20;9.15;;;7.13;;
39822;SDS011;25499;53.958;10.970;2022-11-13T17:41:46;9.32;;;6.68;;
39822;SDS011;25499;53.958;10.970;2022-11-13T17:44:11;10.00;;;6.47;;
39822;SDS011;25499;53.958;10.970;2022-11-13T17:46:36;9.68;;;6.72;;
39822;SDS011;25499;53.958;10.970;2022-11-13T17:49:02;6.97;;;5.57;;
39822;SDS011;25499;53.958;10.970;2022-11-13T17:51:28;6.28;;;5.68;;
39822;SDS011;25499;53.958;10.970;2022-11-13T17:53:55;5.45;;;4.72;;
39822;SDS011;25499;53.958;10.970;2022-11-13T17:56:21;5.55;;;4.78;;
39822;SDS011;25499;53.958;10.970;2022-11-13T17:58:46;6.00;;;5.07;;
39822;SDS011;25499;53.958;10.970;2022-11-13T18:01:20;5.47;;;4.57;;
39822;SDS011;25499;53.958;10.970;2022-11-13T18:03:46;5.85;;;5.25;;
39822;SDS011;25499;53.958;10.970;2022-11-13T18:06:18;5.75;;;4.43;;
39822;SDS011;25499;53.958;10.970;2022-11-13T18:08:44;4.70;;;4.25;;
39822;SDS011;25499;53.958;10.970;2022-11-13T18:11:14;5.25;;;4.57;;
39822;SDS011;25499;53.958;10.970;2022-11-13T18:13:45;5.32;;;4.22;;
39822;SDS011;25499;53.958;10.970;2022-11-13T18:16:13;5.18;;;4.68;;
39822;SDS011;25499;53.958;10.970;2022-11-13T18:18:40;4.65;;;4.25;;
39822;SDS011;25499;53.958;10.970;2022-11-13T18:21:10;5.10;;;4.32;;
39822;SDS011;25499;53.958;10.970;2022-11-13T18:23:46;5.93;;;5.33;;
39822;SDS011;25499;53.958;10.970;2022-11-13T18:26:12;6.00;;;4.68;;
39822;SDS011;25499;53.958;10.970;2022-11-13T18:28:41;5.65;;;5.13;;
39822;SDS011;25499;53.958;10.970;2022-11-13T18:31:07;7.07;;;5.53;;
39822;SDS011;25499;53.958;10.970;2022-11-13T18:33:39;6.68;;;5.72;;
39822;SDS011;25499;53.958;10.970;2022-11-13T18:36:05;6.97;;;5.95;;
39822;SDS011;25499;53.958;10.970;2022-11-13T18:38:31;8.82;;;6.68;;
39822;SDS011;25499;53.958;10.970;2022-11-13T18:41:01;6.70;;;6.00;;
39822;SDS011;25499;53.958;10.970;2022-11-13T18:43:35;7.40;;;6.63;;
39822;SDS011;25499;53.958;10.970;2022-11-13T18:46:02;8.43;;;7.50;;
39822;SDS011;25499;53.958;10.970;2022-11-13T18:48:30;8.45;;;7.53;;
39822;SDS011;25499;53.958;10.970;2022-11-13T18:50:57;8.85;;;7.85;;
39822;SDS011;25499;53.958;10.970;2022-11-13T18:53:24;9.88;;;7.60;;
39822;SDS011;25499;53.958;10.970;2022-11-13T18:58:25;9.07;;;8.18;;
39822;SDS011;25499;53.958;10.970;2022-11-13T19:00:51;9.90;;;8.82;;
39822;SDS011;25499;53.958;10.970;2022-11-13T19:03:17;10.27;;;8.93;;
39822;SDS011;25499;53.958;10.970;2022-11-13T19:05:45;11.32;;;9.57;;
39822;SDS011;25499;53.958;10.970;2022-11-13T19:08:11;11.13;;;9.77;;
39822;SDS011;25499;53.958;10.970;2022-11-13T19:10:38;13.45;;;10.80;;
39822;SDS011;25499;53.958;10.970;2022-11-13T19:13:05;11.82;;;10.18;;
39822;SDS011;25499;53.958;10.970;2022-11-13T19:15:31;12.52;;;10.55;;
39822;SDS011;25499;53.958;10.970;2022-11-13T19:17:59;14.23;;;11.05;;
39822;SDS011;25499;53.958;10.970;2022-11-13T19:20:24;14.05;;;11.70;;
39822;SDS011;25499;53.958;10.970;2022-11-13T19:22:50;12.73;;;11.10;;
39822;SDS011;25499;53.958;10.970;2022-11-13T19:25:15;13.38;;;11.80;;
39822;SDS011;25499;53.958;10.970;2022-11-13T19:27:41;14.32;;;12.15;;
39822;SDS011;25499;53.958;10.970;2022-11-13T19:30:06;15.63;;;13.10;;
39822;SDS011;25499;53.958;10.970;2022-11-13T19:32:32;15.43;;;12.65;;
39822;SDS011;25499;53.958;10.970;2022-11-13T19:34:57;15.57;;;13.82;;
39822;SDS011;25499;53.958;10.970;2022-11-13T19:37:22;16.88;;;13.95;;
39822;SDS011;25499;53.958;10.970;2022-11-13T19:39:48;17.08;;;14.02;;
39822;SDS011;25499;53.958;10.970;2022-11-13T19:42:13;16.33;;;13.43;;
39822;SDS011;25499;53.958;10.970;2022-11-13T19:44:39;17.38;;;14.65;;
39822;SDS011;25499;53.958;10.970;2022-11-13T19:47:04;18.50;;;14.65;;
39822;SDS011;25499;53.958;10.970;2022-11-13T19:49:30;17.33;;;14.85;;
39822;SDS011;25499;53.958;10.970;2022-11-13T19:51:55;17.25;;;14.70;;
39822;SDS011;25499;53.958;10.970;2022-11-13T19:54:21;18.85;;;14.13;;
39822;SDS011;25499;53.958;10.970;2022-11-13T19:56:46;17.65;;;15.18;;
39822;SDS011;25499;53.958;10.970;2022-11-13T19:59:12;17.92;;;14.65;;
39822;SDS011;25499;53.958;10.970;2022-11-13T20:01:38;17.15;;;14.18;;
39822;SDS011;25499;53.958;10.970;2022-11-13T20:04:04;17.35;;;15.43;;
39822;SDS011;25499;53.958;10.970;2022-11-13T20:06:30;15.48;;;12.88;;
39822;SDS011;25499;53.958;10.970;2022-11-13T20:08:59;16.50;;;14.13;;
39822;SDS011;25499;53.958;10.970;2022-11-13T20:11:26;16.00;;;13.52;;
39822;SDS011;25499;53.958;10.970;2022-11-13T20:13:52;15.18;;;12.32;;
39822;SDS011;25499;53.958;10.970;2022-11-13T20:16:17;13.35;;;11.95;;
39822;SDS011;25499;53.958;10.970;2022-11-13T20:18:45;15.30;;;12.55;;
39822;SDS011;25499;53.958;10.970;2022-11-13T20:21:11;14.95;;;13.35;;
39822;SDS011;25499;53.958;10.970;2022-11-13T20:23:36;14.65;;;11.38;;
39822;SDS011;25499;53.958;10.970;2022-11-13T20:26:04;12.55;;;11.23;;
39822;SDS011;25499;53.958;10.970;2022-11-13T20:28:31;13.13;;;11.30;;
39822;SDS011;25499;53.958;10.970;2022-11-13T20:31:04;12.73;;;10.98;;
39822;SDS011;25499;53.958;10.970;2022-11-13T20:33:32;13.15;;;10.93;;
39822;SDS011;25499;53.958;10.970;2022-11-13T20:35:59;13.15;;;10.68;;
39822;SDS011;25499;53.958;10.970;2022-11-13T20:38:25;14.10;;;11.90;;
39822;SDS011;25499;53.958;10.970;2022-11-13T20:40:51;13.38;;;11.20;;
39822;SDS011;25499;53.958;10.970;2022-11-13T20:43:16;13.68;;;11.82;;
39822;SDS011;25499;53.958;10.970;2022-11-13T20:45:42;12.48;;;10.95;;
39822;SDS011;25499;53.958;10.970;2022-11-13T20:48:07;13.90;;;10.68;;
39822;SDS011;25499;53.958;10.970;2022-11-13T20:50:35;13.25;;;10.73;;
39822;SDS011;25499;53.958;10.970;2022-11-13T20:53:02;12.50;;;11.20;;
39822;SDS011;25499;53.958;10.970;2022-11-13T20:55:28;13.68;;;11.55;;
39822;SDS011;25499;53.958;10.970;2022-11-13T20:57:54;12.38;;;10.68;;
